Time;durP1;ratioP1;P1;durP2;ratioP2;P2;SDS_P1;SDS_P2;PMS_P1;PMS_P2;Temp;Humidity;BMP_temperature;BMP_pressure;BME280_temperature;BME280_humidity;BME280_pressure;Samples;Min_cycle;Max_cycle;Signal;HPM_P1;HPM_P2
2022/12/25 00:01:58;;;;;;;;;11.00;9.67;;;;;13.64;91.45;17228.19;5031821;28;45562;-90
2022/12/25 00:04:23;;;;;;;;;11.33;11.33;;;;;14.26;91.58;18096.34;5022115;28;45486;-89
2022/12/25 00:06:49;;;;;;;;;22.33;16.67;;;;;13.58;91.26;15715.88;5033670;28;45623;-90
2022/12/25 00:09:14;;;;;;;;;16.33;15.67;;;;;13.94;91.32;15771.66;5032973;28;46905;-90
2022/12/25 00:11:39;;;;;;;;;19.67;16.00;;;;;13.96;91.76;16034.41;5035882;28;45411;-90
2022/12/25 00:14:05;;;;;;;;;14.00;12.00;;;;;13.39;91.06;14861.38;5027807;28;45546;-90
2022/12/25 00:16:30;;;;;;;;;10.67;10.00;;;;;12.50;90.74;13470.22;5030522;28;45513;-92
2022/12/25 00:19:00;;;;;;;;;13.00;12.33;;;;;13.33;90.55;13086.50;5014027;28;48143;-90
2022/12/25 00:21:26;;;;;;;;;11.00;8.00;;;;;12.64;90.37;11525.75;5043529;28;45525;-90
2022/12/25 00:24:17;;;;;;;;;7.33;7.33;;;;;14.36;90.64;12106.38;5052545;28;45868;-89
2022/12/25 00:26:43;;;;;;;;;7.67;7.67;;;;;13.38;90.54;12485.47;5044660;28;45571;-90
2022/12/25 00:29:11;;;;;;;;;4.00;4.00;;;;;12.77;90.03;9173.34;5052593;28;45758;-90
2022/12/25 00:31:39;;;;;;;;;7.33;5.67;;;;;13.34;90.49;10997.69;5051356;28;45545;-90
2022/12/25 00:34:05;;;;;;;;;9.67;8.00;;;;;14.42;90.26;11271.31;5036607;28;45514;-90
2022/12/25 00:36:30;;;;;;;;;9.67;9.67;;;;;13.91;90.48;10664.97;5048672;28;45399;-91
2022/12/25 00:38:56;;;;;;;;;8.00;8.00;;;;;13.57;90.42;10186.19;5047818;28;46765;-90
2022/12/25 00:44:08;;;;;;;;;7.00;5.33;;;;;14.41;89.64;6185.78;5050651;28;45403;-92
2022/12/25 00:46:35;;;;;;;;;6.33;5.00;;;;;14.03;89.54;8514.88;5052103;28;45319;-90
2022/12/25 00:49:01;;;;;;;;;7.00;5.33;;;;;13.83;89.84;8197.06;5045548;28;45324;-90
2022/12/25 00:51:26;;;;;;;;;5.33;5.33;;;;;13.61;90.01;7227.75;5040672;28;46178;-88
2022/12/25 00:53:52;;;;;;;;;4.33;4.00;;;;;13.65;89.26;5918.13;5055627;28;45514;-90
2022/12/25 00:56:17;;;;;;;;;3.67;3.67;;;;;14.10;89.42;3742.84;5058533;28;46659;-89
2022/12/25 00:58:42;;;;;;;;;5.67;5.33;;;;;14.03;89.75;3993.09;5056187;28;47083;-88
2022/12/25 01:01:10;;;;;;;;;3.00;3.00;;;;;13.99;89.40;4568.03;5058455;28;45650;-89
2022/12/25 01:03:35;;;;;;;;;0.00;0.00;;;;;14.41;89.29;3492.50;5059356;28;45408;-90
2022/12/25 01:06:06;;;;;;;;;4.33;2.67;;;;;14.43;89.09;3712.50;5058357;28;45597;-92
2022/12/25 01:08:35;;;;;;;;;3.33;3.33;;;;;14.45;89.35;3594.97;5039722;28;47392;-88
2022/12/25 01:11:04;;;;;;;;;3.00;2.00;;;;;13.81;89.01;1024.50;5056125;28;45620;-86
2022/12/25 01:13:33;;;;;;;;;4.00;3.00;;;;;14.48;89.01;1816.25;5059020;28;45556;-88
2022/12/25 01:16:04;;;;;;;;;3.00;3.00;;;;;14.13;88.94;1680.13;5047388;28;45886;-88
2022/12/25 01:18:30;;;;;;;;;3.00;3.00;;;;;13.20;89.04;1461.53;5055351;28;47473;-87
2022/12/25 01:20:55;;;;;;;;;4.00;3.00;;;;;14.43;88.92;1839.38;5057626;28;45490;-88
2022/12/25 01:23:20;;;;;;;;;2.00;2.00;;;;;14.22;89.32;1636.41;5058130;28;45380;-88
2022/12/25 01:25:45;;;;;;;;;3.00;3.00;;;;;14.52;89.13;1683.16;5058247;28;45458;-88
2022/12/25 01:28:11;;;;;;;;;2.67;2.67;;;;;14.53;89.44;3140.53;5050848;28;47221;-88
2022/12/25 01:30:36;;;;;;;;;2.00;2.00;;;;;14.54;89.23;2271.91;5058787;28;45421;-88
2022/12/25 01:33:05;;;;;;;;;4.00;4.00;;;;;14.54;89.36;2687.91;5058743;28;45431;-87
2022/12/25 01:35:30;;;;;;;;;3.00;3.00;;;;;14.22;89.33;3474.72;5058831;28;45455;-88
2022/12/25 01:37:55;;;;;;;;;3.00;3.00;;;;;14.41;89.38;3222.97;5058107;28;46547;-88
2022/12/25 01:40:21;;;;;;;;;2.00;2.00;;;;;14.53;89.42;2575.34;5058907;28;45290;-88
2022/12/25 01:42:46;;;;;;;;;2.33;2.33;;;;;14.21;88.83;2216.75;5058446;28;45368;-87
2022/12/25 01:45:48;;;;;;;;;3.33;3.33;;;;;14.54;89.54;6507.22;5045611;28;45478;-88
2022/12/25 01:48:21;;;;;;;;;2.33;2.33;;;;;14.18;90.21;7080.16;4975977;28;46241;-88
2022/12/25 01:50:54;;;;;;;;;2.00;2.00;;;;;14.10;89.54;4373.25;4976769;28;45583;-88
2022/12/25 01:53:21;;;;;;;;;2.00;2.00;;;;;14.57;89.33;1968.72;4973830;28;45456;-87
2022/12/25 01:55:48;;;;;;;;;2.67;2.67;;;;;14.25;89.20;1498.03;4976970;28;45468;-88
2022/12/25 01:58:15;;;;;;;;;2.33;2.00;;;;;14.05;88.89;2231.06;4972128;28;46207;-87
2022/12/25 02:00:40;;;;;;;;;2.00;2.00;;;;;14.13;88.97;3858.25;4969214;28;45555;-88
2022/12/25 02:03:05;;;;;;;;;2.33;2.33;;;;;14.55;89.20;3855.16;4976519;28;45565;-88
2022/12/25 02:05:33;;;;;;;;;2.00;2.00;;;;;14.13;89.45;3738.00;4977032;28;45484;-88
2022/12/25 02:08:05;;;;;;;;;1.00;1.00;;;;;14.48;89.25;4163.22;4975814;28;46908;-88
2022/12/25 02:10:30;;;;;;;;;3.00;3.00;;;;;14.55;89.23;4145.72;4957617;28;45419;-88
2022/12/25 02:12:55;;;;;;;;;3.00;3.00;;;;;14.37;89.32;4842.28;4956412;28;45458;-88
2022/12/25 02:15:37;;;;;;;;;2.00;2.00;;;;;14.30;89.67;6692.06;4957859;28;45492;-88
2022/12/25 02:18:20;;;;;;;;;4.00;3.00;;;;;14.57;89.68;5829.44;4958957;28;47934;-88
2022/12/25 02:20:54;;;;;;;;;0.67;0.67;;;;;14.59;89.82;7241.47;4975428;28;45388;-89
2022/12/25 02:23:29;;;;;;;;;1.67;1.67;;;;;14.59;89.73;7183.75;5035536;28;45669;-88
2022/12/25 02:26:00;;;;;;;;;2.00;2.00;;;;;14.60;89.79;7587.38;5054402;28;45466;-88
2022/12/25 02:28:36;;;;;;;;;2.00;2.00;;;;;14.60;90.03;7519.25;5055873;28;46064;-88
2022/12/25 02:31:17;;;;;;;;;1.67;1.67;;;;;14.30;89.39;5969.44;5040425;28;45375;-88
2022/12/25 02:34:01;;;;;;;;;1.67;1.67;;;;;14.34;89.63;4593.28;5057438;28;45419;-88
2022/12/25 02:36:34;;;;;;;;;3.67;2.00;;;;;14.28;89.58;5647.25;5044771;28;45660;-89
2022/12/25 02:41:52;;;;;;;;;2.00;2.00;;;;;14.50;89.29;5048.13;5056042;28;45565;-88
2022/12/25 03:07:17;;;;;;;;;3.00;3.00;;;;;14.56;89.97;7361.53;5056553;28;45426;-91
2022/12/25 03:12:50;;;;;;;;;3.33;3.33;;;;;14.55;89.87;7694.00;4973801;28;46090;-87
2022/12/25 03:18:07;;;;;;;;;3.00;3.00;;;;;14.57;90.29;10113.34;4974649;28;45509;-87
2022/12/25 03:27:08;;;;;;;;;2.00;2.00;;;;;14.54;89.82;9669.69;4972912;28;45334;-88
2022/12/25 03:29:02;;;;;;;;;1.67;1.67;;;;;14.54;90.15;9685.41;4967613;28;45516;-87
2022/12/25 03:31:33;;;;;;;;;2.00;0.33;;;;;14.53;89.92;8712.88;4975103;28;45524;-88
2022/12/25 04:38:29;;;;;;;;;11.00;9.00;;;;;14.58;91.87;18081.09;5058985;28;45339;-88
2022/12/25 04:40:54;;;;;;;;;9.33;9.00;;;;;14.44;92.09;18785.56;5058826;28;45530;-89
2022/12/25 04:43:23;;;;;;;;;9.67;9.67;;;;;14.59;91.92;19925.91;5063718;28;45438;-88
2022/12/25 04:46:06;;;;;;;;;11.33;9.00;;;;;13.16;92.21;19796.88;5057430;28;45480;-89
2022/12/25 04:48:34;;;;;;;;;13.33;11.67;;;;;14.61;92.33;20247.34;5050579;28;45338;-88
2022/12/25 04:51:17;;;;;;;;;16.67;11.67;;;;;14.59;92.62;21111.47;5057208;28;45560;-88
2022/12/25 04:53:45;;;;;;;;;13.67;11.00;;;;;14.44;92.68;21868.19;5058561;28;45621;-88
2022/12/25 04:56:11;;;;;;;;;15.00;12.67;;;;;14.53;92.72;22629.25;5056093;28;45505;-87
2022/12/25 04:58:37;;;;;;;;;14.00;13.67;;;;;14.44;92.62;23477.25;5056273;28;45505;-87
2022/12/25 05:01:03;;;;;;;;;21.33;14.67;;;;;14.39;92.97;23356.94;5056123;28;45533;-88
2022/12/25 05:03:29;;;;;;;;;13.33;13.33;;;;;14.27;92.71;24892.78;5058152;28;45567;-87
2022/12/25 05:05:54;;;;;;;;;19.33;15.00;;;;;14.54;93.16;25155.03;5058269;28;45950;-88
2022/12/25 05:08:20;;;;;;;;;15.00;11.33;;;;;14.42;93.74;25570.41;5058108;28;45546;-88
2022/12/25 05:10:46;;;;;;;;;15.67;13.00;;;;;14.40;93.49;25522.34;5058583;28;46205;-87
2022/12/25 05:13:12;;;;;;;;;17.33;15.33;;;;;14.29;93.62;25283.25;5058387;28;45387;-87
2022/12/25 05:15:41;;;;;;;;;15.00;13.00;;;;;14.44;93.60;27261.41;5058990;28;45617;-88
2022/12/25 05:18:07;;;;;;;;;14.00;13.67;;;;;14.57;93.56;26796.38;5058283;28;45590;-88
2022/12/25 05:20:32;;;;;;;;;16.33;14.67;;;;;14.39;93.95;27345.53;5050540;28;45515;-88
2022/12/25 05:22:57;;;;;;;;;12.33;11.00;;;;;14.37;93.68;27668.56;5057861;28;45506;-87
2022/12/25 05:25:23;;;;;;;;;16.33;13.00;;;;;14.45;94.22;27833.25;5059748;28;45537;-88
2022/12/25 05:27:48;;;;;;;;;17.33;16.33;;;;;14.28;94.14;28717.03;5057412;28;45382;-88
2022/12/25 05:30:14;;;;;;;;;18.33;15.33;;;;;14.24;94.18;28157.06;5057944;28;46191;-88
2022/12/25 05:32:39;;;;;;;;;18.00;11.67;;;;;14.59;94.03;27155.22;5058336;28;45497;-87
2022/12/25 05:35:07;;;;;;;;;16.67;12.33;;;;;14.21;93.97;28442.47;5057071;28;45327;-87
2022/12/25 05:37:33;;;;;;;;;11.67;11.67;;;;;14.35;94.29;29018.28;5057392;28;45527;-87
2022/12/25 05:39:58;;;;;;;;;14.33;13.33;;;;;14.16;94.09;28118.72;5056348;28;46215;-88
2022/12/25 05:42:24;;;;;;;;;13.67;10.67;;;;;14.47;93.96;28010.44;5058009;28;45256;-87
2022/12/25 05:44:49;;;;;;;;;12.00;12.00;;;;;14.07;93.82;27688.03;5057081;28;45221;-88
2022/12/25 05:47:14;;;;;;;;;14.00;13.67;;;;;14.30;94.04;28850.00;5058519;28;45427;-88
2022/12/25 05:49:40;;;;;;;;;14.67;13.33;;;;;14.09;95.71;35150.81;5057145;28;46402;-88
2022/12/25 05:52:05;;;;;;;;;15.33;12.33;;;;;14.43;96.55;37572.91;5041455;28;45525;-88
2022/12/25 05:54:30;;;;;;;;;15.33;14.00;;;;;14.22;96.04;36182.00;5055546;28;45495;-88
2022/12/25 05:56:56;;;;;;;;;14.67;12.67;;;;;14.09;95.66;33094.91;5057241;28;45647;-88
2022/12/25 05:59:21;;;;;;;;;17.00;13.67;;;;;14.43;95.23;32052.25;5058181;28;46193;-89
2022/12/25 06:01:46;;;;;;;;;11.67;11.67;;;;;14.44;95.47;32532.88;5055694;28;46217;-88
2022/12/25 06:04:12;;;;;;;;;11.33;10.33;;;;;14.24;95.07;31237.94;5056090;28;45452;-88
2022/12/25 06:06:37;;;;;;;;;8.33;8.33;;;;;14.35;94.78;30393.44;5058350;28;45436;-88
2022/12/25 06:09:02;;;;;;;;;16.33;11.33;;;;;14.22;94.64;30165.03;5057906;28;46285;-88
2022/12/25 06:11:28;;;;;;;;;13.67;11.00;;;;;14.44;95.22;30516.44;5057580;28;45391;-88
2022/12/25 06:13:53;;;;;;;;;16.67;14.00;;;;;14.43;95.15;32047.00;5039631;28;45455;-88
2022/12/25 06:16:19;;;;;;;;;15.67;15.00;;;;;14.41;94.77;30746.91;5055490;28;45442;-88
2022/12/25 06:18:47;;;;;;;;;18.00;14.00;;;;;14.18;95.49;32080.50;5055811;28;46256;-89
2022/12/25 06:21:14;;;;;;;;;11.00;9.67;;;;;13.97;95.26;31734.09;5066592;28;45693;-88
2022/12/25 06:23:40;;;;;;;;;13.00;10.00;;;;;14.43;95.37;31849.31;5053648;28;45684;-88
2022/12/25 06:26:08;;;;;;;;;15.00;11.67;;;;;14.32;94.75;31435.09;5057559;28;45717;-88
2022/12/25 06:28:33;;;;;;;;;16.00;12.33;;;;;14.45;94.91;30951.78;5054997;28;46037;-88
2022/12/25 06:31:04;;;;;;;;;13.33;11.33;;;;;14.42;94.96;30289.03;5056305;28;45438;-87
2022/12/25 06:33:30;;;;;;;;;12.67;12.67;;;;;14.08;94.66;30381.44;5054475;28;45400;-88
2022/12/25 06:35:55;;;;;;;;;11.67;9.33;;;;;14.17;95.13;31347.53;5057099;28;45534;-87
2022/12/25 06:38:20;;;;;;;;;10.33;10.33;;;;;14.47;94.84;30763.16;5056333;28;45733;-87
2022/12/25 06:40:46;;;;;;;;;9.00;9.00;;;;;14.31;94.87;30512.13;5054791;28;48905;-87
2022/12/25 06:43:11;;;;;;;;;11.33;11.00;;;;;14.23;94.80;30376.00;5056800;28;45432;-87
2022/12/25 06:45:36;;;;;;;;;11.00;11.00;;;;;14.09;95.08;31398.56;5055631;28;45574;-87
2022/12/25 06:48:02;;;;;;;;;11.00;11.00;;;;;14.24;94.69;30940.25;5055417;28;46852;-88
2022/12/25 06:50:27;;;;;;;;;15.67;14.33;;;;;14.45;94.68;30959.69;5055593;28;45432;-88
2022/12/25 06:52:52;;;;;;;;;13.67;13.67;;;;;14.28;94.70;29936.53;5057874;28;45427;-88
2022/12/25 06:55:18;;;;;;;;;14.00;12.33;;;;;14.29;94.50;29857.81;5056406;28;45884;-88
2022/12/25 06:57:43;;;;;;;;;17.00;15.00;;;;;14.32;94.96;30823.56;5056263;28;45569;-88
2022/12/25 07:00:09;;;;;;;;;13.33;13.33;;;;;14.45;94.88;30443.50;5054132;28;49134;-88
2022/12/25 07:02:37;;;;;;;;;15.33;15.00;;;;;14.43;94.69;29712.38;5055924;28;45348;-88
2022/12/25 07:05:03;;;;;;;;;15.33;14.00;;;;;14.39;95.11;30703.38;5056567;28;45530;-88
2022/12/25 07:07:28;;;;;;;;;16.00;15.67;;;;;14.38;94.86;31388.16;5054661;28;46268;-88
2022/12/25 07:09:53;;;;;;;;;13.67;13.33;;;;;13.92;95.14;32063.34;5053698;28;45412;-88
2022/12/25 07:12:22;;;;;;;;;17.00;15.67;;;;;14.26;95.15;32050.59;5056799;28;45353;-88
2022/12/25 07:14:48;;;;;;;;;16.33;14.00;;;;;14.12;95.14;31526.44;5056316;28;45683;-88
2022/12/25 07:17:17;;;;;;;;;16.00;12.33;;;;;13.92;94.82;32121.00;5053440;28;46082;-88
2022/12/25 07:19:43;;;;;;;;;14.33;14.00;;;;;14.41;95.00;32077.47;5053437;28;45435;-88
2022/12/25 07:22:08;;;;;;;;;12.33;10.00;;;;;14.34;95.01;31976.47;5054142;28;45628;-88
2022/12/25 07:24:34;;;;;;;;;16.33;14.67;;;;;14.42;94.52;29361.47;5056153;28;45489;-88
2022/12/25 07:26:59;;;;;;;;;16.00;13.67;;;;;14.17;94.72;30604.72;5052249;28;46642;-88
2022/12/25 07:29:24;;;;;;;;;16.00;11.67;;;;;14.17;94.56;29346.00;5053209;28;45515;-87
2022/12/25 07:31:50;;;;;;;;;16.33;12.67;;;;;13.98;93.84;27483.25;5054951;28;45671;-87
2022/12/25 07:34:17;;;;;;;;;16.67;14.33;;;;;14.36;94.19;27244.47;5054392;28;45403;-87
2022/12/25 07:36:42;;;;;;;;;11.33;11.33;;;;;14.14;93.97;28251.94;5055026;28;46066;-88
2022/12/25 07:39:09;;;;;;;;;15.33;11.67;;;;;14.33;94.41;29394.06;5053449;28;45428;-87
2022/12/25 07:41:35;;;;;;;;;14.00;11.67;;;;;14.31;94.43;29324.53;5044349;28;45470;-88
2022/12/25 07:44:00;;;;;;;;;13.00;10.00;;;;;14.25;94.38;28902.66;5056839;28;45497;-87
2022/12/25 07:46:27;;;;;;;;;11.33;11.33;;;;;14.30;94.38;29387.19;5054767;28;47461;-88
2022/12/25 07:48:52;;;;;;;;;13.33;12.33;;;;;13.88;94.79;29978.16;5055351;28;45518;-88
2022/12/25 07:51:17;;;;;;;;;15.33;10.33;;;;;14.10;94.20;28702.84;5052569;28;45463;-88
2022/12/25 07:53:43;;;;;;;;;12.00;10.67;;;;;13.90;94.68;29358.13;5056675;28;45331;-87
2022/12/25 07:56:12;;;;;;;;;10.67;10.67;;;;;14.32;93.91;28129.59;5055198;28;46322;-88
2022/12/25 07:58:38;;;;;;;;;14.67;13.33;;;;;14.09;93.86;27989.06;5052001;28;45531;-88
2022/12/25 08:01:06;;;;;;;;;10.00;9.67;;;;;14.13;93.74;28069.81;5053563;28;45636;-87
2022/12/25 08:03:33;;;;;;;;;12.00;10.33;;;;;14.38;93.43;27390.03;5056344;28;45454;-88
2022/12/25 08:06:04;;;;;;;;;9.33;9.33;;;;;14.13;93.57;25633.69;5037625;28;48550;-87
2022/12/25 08:08:29;;;;;;;;;13.33;9.67;;;;;14.31;93.32;25434.16;5054139;28;45507;-87
2022/12/25 08:10:55;;;;;;;;;8.33;8.33;;;;;14.31;93.24;23729.72;5053870;28;45489;-87
2022/12/25 08:13:20;;;;;;;;;11.00;11.00;;;;;14.26;93.12;22941.13;5054167;28;45526;-88
2022/12/25 08:15:46;;;;;;;;;10.00;8.67;;;;;14.39;92.91;22967.75;5053131;28;46970;-87
2022/12/25 08:18:11;;;;;;;;;13.67;13.00;;;;;13.98;92.93;24180.31;5054639;28;45561;-87
2022/12/25 08:20:36;;;;;;;;;8.33;8.33;;;;;14.42;92.94;23324.06;5053076;28;45513;-86
2022/12/25 08:23:02;;;;;;;;;10.67;9.67;;;;;14.40;92.17;20271.16;5050165;28;45774;-88
2022/12/25 08:25:28;;;;;;;;;7.67;4.33;;;;;14.05;92.42;20575.66;5054008;28;46274;-86
2022/12/25 08:27:53;;;;;;;;;9.67;7.33;;;;;14.35;92.38;19617.66;5046402;28;45481;-86
2022/12/25 08:30:19;;;;;;;;;4.00;4.00;;;;;13.98;92.12;19929.75;5052767;28;45506;-87
2022/12/25 08:33:05;;;;;;;;;6.33;6.33;;;;;14.13;92.49;20565.63;5047352;28;45503;-93
2022/12/25 08:35:32;;;;;;;;;10.00;8.00;;;;;14.36;92.07;20264.56;5048103;28;46589;-93
2022/12/25 08:37:58;;;;;;;;;6.00;5.67;;;;;13.99;92.36;20733.50;5053618;28;45424;-92
2022/12/25 08:40:23;;;;;;;;;10.67;10.00;;;;;14.35;92.27;21299.56;5053243;28;47911;-90
2022/12/25 08:42:48;;;;;;;;;13.67;11.33;;;;;12.95;92.37;21983.81;5055091;28;46228;-93
2022/12/25 08:45:17;;;;;;;;;9.67;8.33;;;;;14.12;92.02;18496.06;5037337;28;47105;-95
2022/12/25 08:47:44;;;;;;;;;7.33;6.33;;;;;12.75;91.35;17712.31;5039187;28;45463;-96
2022/12/25 08:50:10;;;;;;;;;11.33;7.33;;;;;13.66;91.89;18427.56;5054315;28;46113;-95
2022/12/25 08:52:36;;;;;;;;;8.33;8.33;;;;;13.49;92.29;20473.00;5037548;28;46235;-94
2022/12/25 08:55:01;;;;;;;;;9.00;9.00;;;;;13.82;91.85;18265.13;5049495;28;46978;-93
2022/12/25 08:57:27;;;;;;;;;7.33;7.33;;;;;13.27;91.61;19142.81;5039168;28;45832;-94
2022/12/25 08:59:52;;;;;;;;;10.67;8.00;;;;;14.12;92.06;18679.84;5057301;28;45610;-96
2022/12/25 09:04:46;;;;;;;;;5.33;5.33;;;;;14.23;91.05;15680.66;5046394;22;74394;-96
2022/12/25 09:07:11;;;;;;;;;4.67;4.67;;;;;14.11;91.72;16149.34;5036496;28;45760;-95
2022/12/25 09:09:36;;;;;;;;;8.00;5.67;;;;;13.72;91.56;15673.19;5027632;28;45288;-95
2022/12/25 09:12:02;;;;;;;;;9.33;7.67;;;;;14.17;91.28;14592.75;5030901;28;45514;-95
2022/12/25 09:14:27;;;;;;;;;8.50;8.50;;;;;13.35;91.14;16185.81;5027541;28;47996;-95
2022/12/25 09:16:53;;;;;;;;;9.67;7.67;;;;;12.43;91.08;16617.91;5038174;28;45908;-96
2022/12/25 09:19:18;;;;;;;;;4.00;4.00;;;;;14.05;90.81;15202.94;5045653;28;45306;-96
2022/12/25 09:21:44;;;;;;;;;7.33;7.33;;;;;13.81;91.08;15526.34;5041607;28;45447;-95
2022/12/25 09:24:09;;;;;;;;;7.33;6.67;;;;;13.01;91.35;15507.63;5020557;28;46845;-95
2022/12/25 09:26:35;;;;;;;;;5.00;5.00;;;;;14.12;91.24;13993.50;5031528;28;45410;-95
2022/12/25 09:29:01;;;;;;;;;10.67;8.00;;;;;13.04;90.72;14694.03;5011351;28;45368;-96
2022/12/25 09:31:26;;;;;;;;;8.67;7.33;;;;;12.53;90.89;14085.53;5028203;28;45613;-96
2022/12/25 09:33:56;;;;;;;;;7.33;7.33;;;;;12.43;91.08;14033.31;5024093;28;48031;-96
2022/12/25 09:36:22;;;;;;;;;4.00;4.00;;;;;14.12;90.93;14570.31;5034102;28;45505;-94
2022/12/25 09:38:47;;;;;;;;;12.00;7.33;;;;;13.89;90.92;13562.50;5037499;28;45431;-94
2022/12/25 09:41:25;;;;;;;;;7.00;7.00;;;;;13.88;90.21;11054.69;5037882;28;45335;-94
2022/12/25 09:44:02;;;;;;;;;9.67;6.33;;;;;14.24;90.29;9019.00;5035280;28;47305;-91
2022/12/25 09:46:44;;;;;;;;;8.67;8.67;;;;;14.27;90.07;5510.94;5036020;28;45541;-92
2022/12/25 09:49:21;;;;;;;;;8.00;7.67;;;;;14.30;89.89;5890.97;5023325;28;45712;-92
2022/12/25 09:51:53;;;;;;;;;11.33;7.33;;;;;14.30;89.37;3020.50;5022854;28;45557;-93
2022/12/25 09:54:45;;;;;;;;;7.67;6.33;;;;;14.29;89.61;2808.53;5035936;28;46400;-94
2022/12/25 09:57:13;;;;;;;;;10.00;8.33;;;;;14.32;89.53;3556.97;5011172;28;46091;-92
2022/12/25 09:59:40;;;;;;;;;8.00;7.00;;;;;14.35;89.56;2934.69;5024312;28;45755;-93
2022/12/25 10:02:21;;;;;;;;;10.67;8.33;;;;;14.38;89.08;131.63;5019325;28;45465;-95
2022/12/25 10:05:07;;;;;;;;;10.00;9.33;;;;;13.93;88.82;1140.34;5018864;28;47737;-94
2022/12/25 10:08:09;;;;;;;;;9.00;8.00;;;;;14.48;89.14;-354.09;5038087;28;45511;-96
2022/12/25 10:10:47;;;;;;;;;7.67;6.67;;;;;14.51;88.50;-6312.50;5019806;28;45416;-94
2022/12/25 10:13:50;;;;;;;;;7.33;3.33;;;;;14.55;88.22;-5871.50;5023442;28;45554;-92
2022/12/25 10:16:18;;;;;;;;;4.00;4.00;;;;;14.59;88.13;-8285.97;5018143;28;47612;-93
2022/12/25 10:19:13;;;;;;;;;9.00;5.33;;;;;14.60;87.83;-10492.84;5020563;28;45510;-93
2022/12/25 10:21:39;;;;;;;;;5.67;5.67;;;;;14.04;88.17;-7131.63;4962691;28;45583;-93
2022/12/25 10:24:21;;;;;;;;;5.00;4.67;;;;;14.65;88.04;-10196.06;4979232;28;45361;-95
2022/12/25 10:26:49;;;;;;;;;8.00;5.67;;;;;14.68;87.93;-7681.19;4971801;28;48253;-96
2022/12/25 10:29:20;;;;;;;;;7.33;5.33;;;;;14.70;87.46;-9114.00;4977593;28;45954;-95
2022/12/25 10:31:48;;;;;;;;;5.67;5.67;;;;;13.98;87.12;-13191.41;4989686;28;45444;-96
2022/12/25 10:34:20;;;;;;;;;4.67;4.00;;;;;13.04;87.21;-14335.53;5004697;28;44960;-96
2022/12/25 10:36:46;;;;;;;;;4.00;4.00;;;;;13.04;87.13;-12339.19;5002996;28;47442;-96
2022/12/25 10:39:23;;;;;;;;;5.67;5.67;;;;;13.21;87.31;-10942.25;4987031;28;45211;-96
2022/12/25 10:41:59;;;;;;;;;8.00;7.00;;;;;13.02;86.91;-14498.78;4995213;28;44706;-96
2022/12/25 10:44:28;;;;;;;;;8.00;8.00;;;;;13.83;86.34;-16971.41;4990064;28;45343;-96
2022/12/25 10:46:56;;;;;;;;;7.33;5.67;;;;;13.23;86.07;-18282.72;4999587;28;47826;-96
2022/12/25 10:49:27;;;;;;;;;9.00;7.00;;;;;13.85;86.01;-18794.16;4996824;28;44725;-96
2022/12/25 10:51:53;;;;;;;;;7.33;5.67;;;;;13.32;85.87;-19136.59;4998285;28;45320;-96
2022/12/25 10:54:24;;;;;;;;;5.33;4.67;;;;;14.92;85.75;-19609.00;4994199;28;45388;-96
2022/12/25 10:56:57;;;;;;;;;10.00;9.00;;;;;13.31;84.51;-19566.81;4998461;28;45528;-96
2022/12/25 10:59:26;;;;;;;;;13.33;9.00;;;;;13.92;84.86;-19582.81;5034866;28;45382;-96
2022/12/25 11:01:55;;;;;;;;;6.67;5.00;;;;;13.19;85.17;-19563.72;5059877;28;44934;-96
2022/12/25 11:04:27;;;;;;;;;4.33;4.33;;;;;13.33;83.86;-19567.22;5048005;28;44867;-96
2022/12/25 11:07:17;;;;;;;;;5.67;5.67;;;;;14.91;84.52;-19608.72;5031112;28;47253;-96
2022/12/25 11:09:54;;;;;;;;;6.67;4.67;;;;;14.91;83.01;-19608.72;5036689;28;45584;-94
2022/12/25 11:12:24;;;;;;;;;3.00;3.00;;;;;14.92;82.82;-19609.13;5041448;28;45622;-92
2022/12/25 11:14:55;;;;;;;;;5.33;5.33;;;;;14.96;83.44;-19610.19;5041230;28;45660;-90
2022/12/25 11:17:24;;;;;;;;;8.00;8.00;;;;;14.70;83.10;-19603.22;5005538;28;47287;-91
2022/12/25 11:19:55;;;;;;;;;2.67;1.67;;;;;14.74;83.04;-19604.28;5026054;28;45565;-85
2022/12/25 11:22:21;;;;;;;;;9.00;6.67;;;;;14.28;83.06;-19592.34;5037405;28;45449;-95
2022/12/25 11:24:47;;;;;;;;;3.00;3.00;;;;;13.48;83.00;-19571.38;5036666;28;45416;-96
2022/12/25 11:27:22;;;;;;;;;3.00;3.00;;;;;15.05;82.43;-19612.34;5028455;28;47270;-94
2022/12/25 11:30:00;;;;;;;;;8.00;5.00;;;;;14.70;82.61;-19603.22;5054180;28;45496;-93
2022/12/25 11:32:33;;;;;;;;;3.00;3.00;;;;;14.30;82.70;-19592.75;5021367;28;45581;-96
2022/12/25 11:35:00;;;;;;;;;3.00;3.00;;;;;14.36;81.69;-19594.50;5056855;28;45623;-95
2022/12/25 11:37:43;;;;;;;;;7.00;4.67;;;;;15.02;81.82;-19611.53;5027169;28;46980;-94
2022/12/25 11:40:42;;;;;;;;;5.67;4.00;;;;;14.91;82.06;-19608.72;5014887;28;45789;-91
2022/12/25 11:43:21;;;;;;;;;12.33;11.00;;;;;15.11;82.12;-19613.97;5033376;28;45289;-93
2022/12/25 11:45:57;;;;;;;;;7.33;7.33;;;;;14.57;81.22;-19599.88;5050158;28;45501;-94
2022/12/25 11:48:30;;;;;;;;;7.33;6.67;;;;;14.16;82.13;-19589.13;5027022;28;47084;-96
2022/12/25 11:51:00;;;;;;;;;15.33;13.67;;;;;13.78;81.13;-19579.03;5048182;28;46321;-93
2022/12/25 11:53:46;;;;;;;;;6.67;4.67;;;;;14.97;81.22;-19610.34;5050232;28;45602;-89
2022/12/25 11:56:19;;;;;;;;;14.00;9.33;;;;;14.64;81.53;-19601.63;5039907;28;45659;-88
2022/12/25 11:59:05;;;;;;;;;5.00;5.00;;;;;15.14;81.10;-19614.75;5017538;28;47356;-91
2022/12/25 12:01:39;;;;;;;;;6.33;4.33;;;;;15.15;80.85;-19615.03;5030373;28;45969;-92
2022/12/25 12:04:19;;;;;;;;;8.00;7.00;;;;;14.08;81.22;-19587.09;5008740;28;45471;-90
2022/12/25 12:06:51;;;;;;;;;6.67;5.00;;;;;15.08;80.83;-19613.16;5002997;28;45707;-90
2022/12/25 12:09:28;;;;;;;;;3.67;3.67;;;;;15.22;80.89;-19616.78;5003101;28;47429;-90
2022/12/25 12:12:10;;;;;;;;;4.00;4.00;;;;;14.70;80.64;-19603.34;5020243;28;45761;-90
2022/12/25 12:14:48;;;;;;;;;6.00;4.67;;;;;14.99;81.04;-19610.88;4999139;28;45746;-90
2022/12/25 12:17:15;;;;;;;;;4.67;3.67;;;;;14.68;80.29;-19602.69;5015884;28;45383;-91
2022/12/25 12:19:41;;;;;;;;;4.33;3.00;;;;;14.84;80.31;-19606.84;5022150;28;46768;-90
2022/12/25 12:22:17;;;;;;;;;6.33;4.00;;;;;15.27;80.10;-19618.25;5024831;28;45673;-91
2022/12/25 12:24:44;;;;;;;;;5.00;3.33;;;;;14.89;80.45;-19608.19;4999786;28;46710;-91
2022/12/25 12:27:18;;;;;;;;;3.33;3.33;;;;;15.34;80.35;-19620.00;5020047;28;45484;-91
2022/12/25 12:29:49;;;;;;;;;5.00;4.00;;;;;15.38;80.19;-19621.22;5001180;28;49041;-94
2022/12/25 12:32:33;;;;;;;;;5.33;4.33;;;;;15.44;79.94;-19622.53;4992817;28;45434;-90
2022/12/25 12:35:04;;;;;;;;;4.33;3.00;;;;;15.13;80.25;-19614.63;5018098;28;45725;-91
2022/12/25 12:37:34;;;;;;;;;4.00;4.00;;;;;15.12;79.81;-19614.34;5008007;28;45424;-92
2022/12/25 12:40:01;;;;;;;;;5.00;5.00;;;;;15.10;79.07;-19613.81;5004880;28;47162;-91
2022/12/25 12:42:37;;;;;;;;;3.00;3.00;;;;;15.14;79.10;-19614.75;5018971;28;45390;-91
2022/12/25 12:45:16;;;;;;;;;2.33;2.33;;;;;15.13;78.52;-19614.50;5026867;28;45613;-91
2022/12/25 12:47:46;;;;;;;;;4.33;3.00;;;;;15.47;79.00;-19623.34;5000338;28;45489;-91
2022/12/25 12:50:39;;;;;;;;;4.00;4.00;;;;;15.49;78.28;-19624.03;4984097;28;47631;-91
2022/12/25 12:53:23;;;;;;;;;5.00;3.00;;;;;15.51;78.19;-19624.56;5001920;28;45796;-91
2022/12/25 12:55:50;;;;;;;;;6.33;5.00;;;;;15.34;78.08;-19620.13;5002131;28;45459;-91
2022/12/25 12:58:34;;;;;;;;;2.67;2.67;;;;;15.32;78.21;-19619.47;5019990;28;45657;-91
2022/12/25 13:01:33;;;;;;;;;2.67;2.67;;;;;15.60;77.48;-19626.84;4999624;28;45568;-92
2022/12/25 13:04:17;;;;;;;;;3.33;2.00;;;;;15.67;78.21;-19628.72;4981895;28;45442;-91
2022/12/25 13:06:57;;;;;;;;;5.00;5.00;;;;;15.52;78.05;-19624.81;4982332;28;45206;-91
2022/12/25 13:09:53;;;;;;;;;3.33;3.33;;;;;15.84;77.01;-19633.16;4998540;28;45487;-92
2022/12/25 13:12:21;;;;;;;;;3.67;3.67;;;;;15.53;76.62;-19625.09;4982901;28;47428;-91
2022/12/25 13:14:48;;;;;;;;;3.00;3.00;;;;;15.91;76.59;-19635.03;5019138;28;45295;-91
2022/12/25 13:17:18;;;;;;;;;5.67;3.00;;;;;15.47;76.80;-19623.47;5019581;28;45328;-91
2022/12/25 13:19:45;;;;;;;;;3.00;3.00;;;;;15.98;76.19;-19636.75;5018902;28;45574;-92
2022/12/25 13:22:23;;;;;;;;;3.00;3.00;;;;;15.98;76.28;-19636.91;5019113;28;45908;-91
2022/12/25 13:25:17;;;;;;;;;1.67;1.33;;;;;15.74;76.17;-19630.47;5001238;28;45372;-91
2022/12/25 13:27:42;;;;;;;;;5.67;3.67;;;;;15.56;75.54;-19625.75;5001376;28;45448;-91